Terminal Aerodrome Forecast
Issued by NWS

Home | Current Version | Previous Version | Text Only | Print | Product List | Glossary On
Versions: 1 2 3 4 5 6 7 8 9 10 11 12 13 14 15 16 17 18 19 20 21 22 23
857
FTUS41 KAKQ 211000 AAD
TAFPHF
TAF AMD
KPHF 211000Z 2110/2206 00000KT P6SM SKC
     FM211500 02005KT P6SM SKC
     FM211800 03006KT P6SM SCT040
     FM212300 09004KT P6SM SKC=

USA.gov is the U.S. government's official web portal to all federal, state and local government web resources and services.